Terminal Aerodrome Forecast
Issued by NWS

Home | Current Version | Previous Version | Text Only | Print | Product List | Glossary On
Versions: 1 2 3 4 5 6 7 8 9 10 11 12 13 14 15 16 17 18 19 20 21 22 23
000
FTUS43 KSGF 051133
TAFBBG
TAF
KBBG 051133Z 0512/0612 13003KT 1/4SM FZFG VV002
     FM051400 13004KT 2SM BR BKN004
     FM051500 13005KT 4SM BR BKN007
     FM051600 13008KT P6SM BKN200
     FM060200 13005KT 4SM -RA BR OVC020
     FM060400 VRB03KT 2SM -RA BR OVC008
     FM061000 VRB03KT 3SM BR OVC007=

USA.gov is the U.S. government's official web portal to all federal, state and local government web resources and services.